createdAt,value
2018-12-15T00:01:58.154Z,15.65
2018-12-15T00:07:03.527Z,20.90
2018-12-15T00:12:06.766Z,24.67
2018-12-15T00:17:09.973Z,25.40
2018-12-15T00:22:13.199Z,24.05
2018-12-15T00:27:16.543Z,27.67
2018-12-15T00:32:19.878Z,21.27
2018-12-15T00:37:23.294Z,24.75
2018-12-15T00:42:33.591Z,28.98
2018-12-15T00:47:37.835Z,27.35
2018-12-15T00:52:41.051Z,29.70
2018-12-15T00:57:44.286Z,32.13
2018-12-15T01:02:47.515Z,24.10
2018-12-15T01:07:50.925Z,40.20
2018-12-15T01:12:54.161Z,42.23
2018-12-15T01:17:57.372Z,36.50
2018-12-15T01:23:00.523Z,41.40
2018-12-15T01:28:04.551Z,34.60
2018-12-15T01:33:07.763Z,85.22
2018-12-15T01:38:13.948Z,43.13
2018-12-15T01:43:17.226Z,39.42
2018-12-15T01:48:20.458Z,48.33
2018-12-15T01:53:23.724Z,50.03
2018-12-15T01:58:26.947Z,45.60
2018-12-15T02:03:30.153Z,43.15
2018-12-15T02:08:33.421Z,52.03
2018-12-15T02:13:38.720Z,39.58
2018-12-15T02:18:41.988Z,52.40
2018-12-15T02:23:45.233Z,40.38
2018-12-15T02:28:48.493Z,39.35
2018-12-15T02:33:52.618Z,43.58
2018-12-15T02:38:55.984Z,38.08
2018-12-15T02:43:59.193Z,38.15
2018-12-15T02:49:02.546Z,38.25
2018-12-15T02:54:05.916Z,48.73
2018-12-15T02:59:10.216Z,41.15
2018-12-15T03:04:13.413Z,45.33
2018-12-15T03:09:18.876Z,47.83
2018-12-15T03:14:22.173Z,47.93
2018-12-15T03:19:25.437Z,45.58
2018-12-15T03:24:29.683Z,46.68
2018-12-15T03:29:33.033Z,48.58
2018-12-15T03:34:36.508Z,65.22
2018-12-15T03:39:40.674Z,62.62
2018-12-15T03:44:44.205Z,53.85
2018-12-15T03:49:47.367Z,54.45
2018-12-15T03:54:50.497Z,52.53
2018-12-15T03:59:53.919Z,59.05
2018-12-15T04:04:57.368Z,68.78
2018-12-15T04:10:03.587Z,75.25
2018-12-15T04:15:06.924Z,69.22
2018-12-15T04:20:10.172Z,64.15
2018-12-15T04:25:13.365Z,62.38
2018-12-15T04:30:16.966Z,58.73
2018-12-15T04:35:20.119Z,62.43
2018-12-15T04:40:23.735Z,64.37
2018-12-15T04:45:26.951Z,61.90
2018-12-15T04:50:30.133Z,91.78
2018-12-15T04:55:33.271Z,57.10
2018-12-15T05:00:36.553Z,56.37
2018-12-15T05:05:39.779Z,70.87
2018-12-15T05:10:44.030Z,99.30
2018-12-15T05:15:47.272Z,101.60
2018-12-15T05:20:50.522Z,97.37
2018-12-15T05:25:53.804Z,71.72
2018-12-15T05:30:57.040Z,98.92
2018-12-15T05:36:00.401Z,104.00
2018-12-15T05:41:03.702Z,96.85
2018-12-15T05:46:06.881Z,98.97
2018-12-15T05:51:10.070Z,76.72
2018-12-15T05:56:13.368Z,98.97
2018-12-15T06:01:16.567Z,111.97
2018-12-15T06:06:20.379Z,96.53
2018-12-15T06:11:23.738Z,109.22
2018-12-15T06:16:27.191Z,101.95
2018-12-15T06:21:30.469Z,109.17
2018-12-15T06:26:33.774Z,73.05
2018-12-15T06:31:36.985Z,121.00
2018-12-15T06:36:40.487Z,133.72
2018-12-15T06:41:44.120Z,180.42
2018-12-15T06:46:47.322Z,249.37
2018-12-15T06:51:50.477Z,343.77
2018-12-15T06:56:53.872Z,215.32
2018-12-15T07:01:57.140Z,203.80
2018-12-15T07:07:01.281Z,236.87
2018-12-15T07:12:04.763Z,171.77
2018-12-15T07:17:08.376Z,179.80
2018-12-15T07:22:11.605Z,139.52
2018-12-15T07:27:14.869Z,125.53
2018-12-15T07:32:18.030Z,181.18
2018-12-15T07:37:21.334Z,243.17
2018-12-15T07:42:25.815Z,284.52
2018-12-15T07:47:30.351Z,216.57
2018-12-15T07:52:33.644Z,162.32
2018-12-15T07:57:36.881Z,198.68
2018-12-15T08:02:40.185Z,223.32
2018-12-15T08:07:43.503Z,130.55
2018-12-15T08:12:48.835Z,155.10
2018-12-15T08:17:52.074Z,134.65
2018-12-15T08:22:55.331Z,112.45
2018-12-15T08:27:58.637Z,121.25
2018-12-15T08:33:01.891Z,62.48
2018-12-15T08:38:05.355Z,65.10
2018-12-15T08:43:08.641Z,62.15
2018-12-15T08:48:11.903Z,54.33
2018-12-15T08:53:15.322Z,60.10
2018-12-15T08:58:18.466Z,59.45
2018-12-15T09:03:21.709Z,71.70
2018-12-15T09:08:25.696Z,53.48
2018-12-15T09:13:29.393Z,69.15
2018-12-15T09:18:32.643Z,84.80
2018-12-15T09:23:37.213Z,73.40
2018-12-15T09:28:40.714Z,85.32
2018-12-15T09:33:43.933Z,80.28
2018-12-15T09:38:47.179Z,79.30
2018-12-15T09:43:50.560Z,53.33
2018-12-15T09:48:55.985Z,93.60
2018-12-15T09:54:02.015Z,91.25
2018-12-15T09:59:05.993Z,68.40
2018-12-15T10:04:09.226Z,94.15
2018-12-15T10:09:13.804Z,82.88
2018-12-15T10:14:17.208Z,74.00
2018-12-15T10:19:24.297Z,68.85
2018-12-15T10:24:26.337Z,126.20
2018-12-15T10:29:34.926Z,118.00
2018-12-15T10:34:38.098Z,77.27
2018-12-15T10:39:41.392Z,84.55
2018-12-15T10:44:44.763Z,107.05
2018-12-15T10:49:48.246Z,123.55
2018-12-15T10:54:53.514Z,130.40
2018-12-15T10:59:56.703Z,149.30
2018-12-15T11:05:00.944Z,243.82
2018-12-15T11:10:04.861Z,101.95
2018-12-15T11:15:09.477Z,113.35
2018-12-15T11:20:12.944Z,157.27
2018-12-15T11:25:16.184Z,134.45
2018-12-15T11:30:19.427Z,126.42
2018-12-15T11:35:22.784Z,184.28
2018-12-15T11:40:26.623Z,129.30
2018-12-15T11:45:30.855Z,114.77
2018-12-15T11:50:34.261Z,115.28
2018-12-15T11:55:37.455Z,120.17
2018-12-15T12:00:40.960Z,137.20
2018-12-15T12:05:44.226Z,189.15
2018-12-15T12:10:47.576Z,123.47
2018-12-15T12:15:50.911Z,155.40
2018-12-15T12:20:54.567Z,169.40
2018-12-15T12:25:57.865Z,157.60
2018-12-15T12:31:03.190Z,81.12
2018-12-15T12:36:06.552Z,107.78
2018-12-15T12:41:11.666Z,79.55
2018-12-15T12:46:16.896Z,73.45
2018-12-15T12:51:20.308Z,68.65
2018-12-15T12:56:23.614Z,109.40
2018-12-15T13:01:26.875Z,96.55
2018-12-15T13:06:30.253Z,95.53
2018-12-15T13:11:33.566Z,133.97
2018-12-15T13:16:36.965Z,113.97
2018-12-15T13:21:40.166Z,107.55
2018-12-15T13:26:43.457Z,119.77
2018-12-15T13:31:46.730Z,153.10
2018-12-15T13:36:49.991Z,138.10
2018-12-15T13:41:53.207Z,151.20
2018-12-15T13:46:56.553Z,173.68
2018-12-15T13:51:59.868Z,273.25
2018-12-15T13:57:03.090Z,237.45
2018-12-15T14:02:06.331Z,229.30
2018-12-15T14:07:09.620Z,191.05
2018-12-15T14:12:12.910Z,220.57
2018-12-15T14:17:17.272Z,174.80
2018-12-15T14:22:20.972Z,199.38
2018-12-15T14:27:24.255Z,187.27
2018-12-15T14:32:27.628Z,121.95
2018-12-15T14:37:30.885Z,148.30
2018-12-15T14:42:34.246Z,384.05
2018-12-15T14:47:37.651Z,115.80
2018-12-15T14:52:40.945Z,162.70
2018-12-15T14:57:44.222Z,195.40
2018-12-15T15:02:47.358Z,282.75
2018-12-15T15:07:50.545Z,292.02
2018-12-15T15:12:53.795Z,303.62
2018-12-15T15:17:57.111Z,283.05
2018-12-15T15:23:00.930Z,230.87
2018-12-15T15:28:04.557Z,272.80
2018-12-15T15:33:08.168Z,289.87
2018-12-15T15:38:12.027Z,271.07
2018-12-15T15:43:15.336Z,289.52
2018-12-15T15:48:18.890Z,320.05
2018-12-15T15:53:22.107Z,350.52
2018-12-15T15:58:25.414Z,356.15
2018-12-15T16:03:28.923Z,347.10
2018-12-15T16:08:32.440Z,312.60
2018-12-15T16:13:35.602Z,307.80
2018-12-15T16:18:38.982Z,299.02
2018-12-15T16:23:42.259Z,294.90
2018-12-15T16:28:45.603Z,366.65
2018-12-15T16:33:48.991Z,310.77
2018-12-15T16:38:52.276Z,311.48
2018-12-15T16:43:55.775Z,278.58
2018-12-15T16:48:59.112Z,322.77
2018-12-15T16:54:02.510Z,408.85
2018-12-15T16:59:05.995Z,149.23
2018-12-15T17:04:09.356Z,228.15
2018-12-15T17:09:12.665Z,114.70
2018-12-15T17:14:15.984Z,227.68
2018-12-15T17:19:20.095Z,238.90
2018-12-15T17:24:24.412Z,750.15
2018-12-15T17:29:28.078Z,349.48
2018-12-15T17:34:31.946Z,293.20
2018-12-15T17:39:35.343Z,201.85
2018-12-15T17:44:38.735Z,251.67
2018-12-15T17:49:42.299Z,271.77
2018-12-15T17:54:45.760Z,266.85
2018-12-15T17:59:49.100Z,236.70
2018-12-15T18:04:52.427Z,211.43
2018-12-15T18:09:55.926Z,174.55
2018-12-15T18:14:59.276Z,185.63
2018-12-15T18:20:02.798Z,293.10
2018-12-15T18:25:07.009Z,88.92
2018-12-15T18:30:11.401Z,110.65
2018-12-15T18:35:14.920Z,112.88
2018-12-15T18:40:20.463Z,84.20
2018-12-15T18:45:23.858Z,134.63
2018-12-15T18:50:28.269Z,146.13
2018-12-15T18:55:31.536Z,146.65
2018-12-15T19:00:35.761Z,146.70
2018-12-15T19:05:39.225Z,128.20
2018-12-15T19:10:42.496Z,157.72
2018-12-15T19:15:46.307Z,166.40
2018-12-15T19:20:50.038Z,212.70
2018-12-15T19:25:53.409Z,204.68
2018-12-15T19:30:57.624Z,270.33
2018-12-15T19:36:00.899Z,173.47
2018-12-15T19:41:04.452Z,188.32
2018-12-15T19:46:07.835Z,188.90
2018-12-15T19:51:11.389Z,200.45
2018-12-15T19:56:15.044Z,145.07
2018-12-15T20:01:18.560Z,176.30
2018-12-15T20:06:22.594Z,224.75
2018-12-15T20:11:26.199Z,186.65
2018-12-15T20:16:29.580Z,250.78
2018-12-15T20:21:35.985Z,181.40
2018-12-15T20:26:38.391Z,163.05
2018-12-15T20:31:41.812Z,188.00
2018-12-15T20:36:45.126Z,163.07
2018-12-15T20:41:48.421Z,145.22
2018-12-15T20:46:51.579Z,166.80
2018-12-15T20:51:55.535Z,187.65
2018-12-15T20:56:59.053Z,151.42
2018-12-15T21:02:02.665Z,149.38
2018-12-15T21:07:05.959Z,96.92
2018-12-15T21:12:09.355Z,116.90
2018-12-15T21:17:12.733Z,105.22
2018-12-15T21:22:16.027Z,145.20
2018-12-15T21:27:19.441Z,127.82
2018-12-15T21:32:22.905Z,117.70
2018-12-15T21:37:26.442Z,123.97
2018-12-15T21:42:29.959Z,112.05
2018-12-15T21:47:33.361Z,148.95
2018-12-15T21:52:36.823Z,148.35
2018-12-15T21:57:39.989Z,125.97
2018-12-15T22:02:43.315Z,147.53
2018-12-15T22:07:46.550Z,104.87
2018-12-15T22:12:49.819Z,115.52
2018-12-15T22:17:53.052Z,119.93
2018-12-15T22:22:56.293Z,121.75
2018-12-15T22:27:59.585Z,88.10
2018-12-15T22:33:02.812Z,108.67
2018-12-15T22:38:06.189Z,74.00
2018-12-15T22:43:10.449Z,67.17
2018-12-15T22:48:13.771Z,80.72
2018-12-15T22:53:17.100Z,96.00
2018-12-15T22:58:20.254Z,64.97
2018-12-15T23:03:23.466Z,102.65
2018-12-15T23:08:26.860Z,114.10
2018-12-15T23:13:30.131Z,63.00
2018-12-15T23:18:33.385Z,65.05
2018-12-15T23:23:36.555Z,45.98
2018-12-15T23:28:39.800Z,62.25
2018-12-15T23:33:43.023Z,160.95
2018-12-15T23:38:46.302Z,112.10
2018-12-15T23:43:49.400Z,87.50
2018-12-15T23:48:52.668Z,79.80
2018-12-15T23:53:55.956Z,74.40
2018-12-15T23:58:59.147Z,35.00
